Terminal Aerodrome Forecast
Issued by NWS

Home | Current Version | Previous Version | Text Only | Print | Product List | Glossary On
Versions: 1 2 3 4 5 6 7 8 9 10 11 12 13 14
634
FTUS46 KPDT 260520
TAFPSC
TAF
KPSC 260520Z 2606/2706 VRB05KT P6SM BKN250
     FM261400 28005KT P6SM SCT080 BKN180
     FM261900 29006KT P6SM -SHRA SCT040 OVC060
     FM270300 22008KT P6SM VCSH SCT050 BKN100=

USA.gov is the U.S. government's official web portal to all federal, state and local government web resources and services.